Maersk Rosario — V2BG2 — position and weather

sailwx.info

Track history (hours):
 
Tides and Currents Weather Stations Pressure Air Temp Water Temp Dewpoint Dewpoint Depression Visibility Wind Speed Wind Dir Waves Ship Positions

Maersk Rosario

Last reported at 2017-May-29 11:26 UTC. Time now 2017-May-29 13:05 UTC.
Position N 35°51' E 014°45'.

Length 161.1 m; beam 25 m; draft 9.5 m.

Type: Cargo ship. MMSI: 304814000.

Date/timePositionNaut miles runAvg speedWind from/ knotsBaromVisibWave heightAir tempDewpointWater temp
2017-May-29 11:26N 35°51' E 014°45'0 0.0
2017-May-29 05:29N 35°51' E 014°45'0 0.1
2017-May-29 04:47N 35°51' E 014°45'0 0.0
2017-May-29 04:23N 35°51' E 014°45'0 0.0
2017-May-29 03:59N 35°51' E 014°45'0 0.0
2017-May-29 03:26N 35°51' E 014°45'0 0.0
2017-May-29 02:59N 35°51' E 014°45'0 0.0
2017-May-29 02:29N 35°51' E 014°45'0 0.0
2017-May-29 01:59N 35°51' E 014°45'0 0.0
2017-May-29 01:29N 35°51' E 014°45'0 0.0
2017-May-29 00:59N 35°51' E 014°45'0 0.2
2017-May-29 00:29N 35°51' E 014°45'0 0.1
2017-May-28 23:59N 35°51' E 014°45'0 0.1
2017-May-28 23:26N 35°51' E 014°45'0 0.0
2017-May-28 22:59N 35°51' E 014°45'0 0.0
2017-May-28 21:29N 35°51' E 014°45'0 0.0
2017-May-28 20:59N 35°51' E 014°45'0 0.0
2017-May-28 19:23N 35°51' E 014°45'0 0.0
2017-May-28 18:38N 35°51' E 014°45'0 0.1
2017-May-28 18:29N 35°51' E 014°45'0 0.0
2017-May-28 13:35N 35°51' E 014°45'0 0.0
2017-May-28 12:44N 35°51' E 014°45'0 0.0
2017-May-28 12:29N 35°51' E 014°45'0 0.0
2017-May-28 11:38N 35°51' E 014°45'0 0.0
2017-May-28 11:11N 35°51' E 014°45'0 0.0
2017-May-28 10:50N 35°51' E 014°45'0 0.6
2017-May-28 10:29N 35°51' E 014°46'5 9.7
2017-May-28 10:00N 35°54' E 014°50'816.0
2017-May-28 09:29N 36°00' E 014°57'118 2.7
2017-May-26 14:35N 37°43' E 016°08'215.0
2017-May-26 14:27N 37°42' E 016°06'2815.5
2017-May-26 12:39N 37°22' E 015°42'84 8.9
2017-May-26 03:08N 36°02' E 015°06'615.0
2017-May-26 02:46N 35°57' E 015°04'414.9
2017-May-26 02:30N 35°53' E 015°03'2215.3
2017-May-26 01:04N 35°32' E 014°56'115.6
2017-May-26 01:00N 35°31' E 014°55'2815.7
2017-May-25 23:11N 35°03' E 014°47'315.7
2017-May-25 22:59N 35°00' E 014°46'1716.0
2017-May-25 21:54N 34°43' E 014°41'616.0
2017-May-25 21:30N 34°37' E 014°39'  
2017-May-20 17:22N 35°49' E 014°32'0 0.0
2017-May-20 15:52N 35°49' E 014°32'0 0.0
2017-May-20 13:58N 35°49' E 014°32'0 0.0
2017-May-20 13:28N 35°49' E 014°32'8 0.3
2017-May-19 13:57N 35°48' E 014°42'  
Track history (hours):
 
Tides and Currents Weather Stations Pressure Air Temp Water Temp Dewpoint Dewpoint Depression Visibility Wind Speed Wind Dir Waves Ship Positions

Maersk Rosario

Last reported at 2017-May-29 11:26 UTC. Time now 2017-May-29 13:05 UTC.
Position N 35°51' E 014°45'.

Length 161.1 m; beam 25 m; draft 9.5 m.

Type: Cargo ship. MMSI: 304814000.

Date/timePositionNaut miles runAvg speedWind from/ knotsBaromVisibWave heightAir tempDewpointWater temp
2017-May-29 11:26N 35°51' E 014°45'0 0.0
2017-May-29 05:29N 35°51' E 014°45'0 0.1
2017-May-29 04:47N 35°51' E 014°45'0 0.0
2017-May-29 04:23N 35°51' E 014°45'0 0.0
2017-May-29 03:59N 35°51' E 014°45'0 0.0
2017-May-29 03:26N 35°51' E 014°45'0 0.0
2017-May-29 02:59N 35°51' E 014°45'0 0.0
2017-May-29 02:29N 35°51' E 014°45'0 0.0
2017-May-29 01:59N 35°51' E 014°45'0 0.0
2017-May-29 01:29N 35°51' E 014°45'0 0.0
2017-May-29 00:59N 35°51' E 014°45'0 0.2
2017-May-29 00:29N 35°51' E 014°45'0 0.1
2017-May-28 23:59N 35°51' E 014°45'0 0.1
2017-May-28 23:26N 35°51' E 014°45'0 0.0
2017-May-28 22:59N 35°51' E 014°45'0 0.0
2017-May-28 21:29N 35°51' E 014°45'0 0.0
2017-May-28 20:59N 35°51' E 014°45'0 0.0
2017-May-28 19:23N 35°51' E 014°45'0 0.0
2017-May-28 18:38N 35°51' E 014°45'0 0.1
2017-May-28 18:29N 35°51' E 014°45'0 0.0
2017-May-28 13:35N 35°51' E 014°45'0 0.0
2017-May-28 12:44N 35°51' E 014°45'0 0.0
2017-May-28 12:29N 35°51' E 014°45'0 0.0
2017-May-28 11:38N 35°51' E 014°45'0 0.0
2017-May-28 11:11N 35°51' E 014°45'0 0.0
2017-May-28 10:50N 35°51' E 014°45'0 0.6
2017-May-28 10:29N 35°51' E 014°46'5 9.7
2017-May-28 10:00N 35°54' E 014°50'816.0
2017-May-28 09:29N 36°00' E 014°57'118 2.7
2017-May-26 14:35N 37°43' E 016°08'215.0
2017-May-26 14:27N 37°42' E 016°06'2815.5
2017-May-26 12:39N 37°22' E 015°42'84 8.9
2017-May-26 03:08N 36°02' E 015°06'615.0
2017-May-26 02:46N 35°57' E 015°04'414.9
2017-May-26 02:30N 35°53' E 015°03'2215.3
2017-May-26 01:04N 35°32' E 014°56'115.6
2017-May-26 01:00N 35°31' E 014°55'2815.7
2017-May-25 23:11N 35°03' E 014°47'315.7
2017-May-25 22:59N 35°00' E 014°46'1716.0
2017-May-25 21:54N 34°43' E 014°41'616.0
2017-May-25 21:30N 34°37' E 014°39'  
2017-May-20 17:22N 35°49' E 014°32'0 0.0
2017-May-20 15:52N 35°49' E 014°32'0 0.0
2017-May-20 13:58N 35°49' E 014°32'0 0.0
2017-May-20 13:28N 35°49' E 014°32'8 0.3
2017-May-19 13:57N 35°48' E 014°42'  

Dump ship's entire track history